Auburn University Regional Airport

Current Flights

Departures
Number Departure To Airline
Arrivals
Info
Name: Auburn University Regional Airport
Identifier:  AUO/KAUO
Local Time:  20. Jun 03:13
City
Flights per Day
7 flights
Distance: 349km (217mi)
Punctuality
81% (1 flights per day delayed)
Delay Average: 4 minutes
Current Weather
 23 C (Humidity: 100%)
  6kt (11km/h / 6mph) from 200°
  16km (10 mi.)
 
 METAR KAUO 200756Z AUTO 20006KT 10SM CLR 23/23 A2987 RMK AO2 SLP122 T02280228

Current Delays

Departures
N/A
Arrivals
N/A

Destinations

Top Destinations
Airport Flights
per week
Seats
per week
  Montgomery (MGM) 6 - 0 0
  Destin (DSI) 5 - 0 0
  Atlanta (PDK) 4 - 0 0
  Chattanooga (CHA) 4 - 0 0
  Tuscaloosa (TCL) 3 - 0 0
  Birmingham (BHM) 3 - 0 0
  Huntsville (HSV) 2 - 0 0
  Daytona Beach (DAB) 2 - 0 0
  New Orleans (NEW) 2 - 0 0
  Mobile (BFM) 2 - 0 0
  Tallahassee (TLH) 2 - 0 0

Airlines & Planes

Top Airlines
Airline Flights
per Day
Seats
per Day
  National Airlines 3 -
  Nolinor Aviation 2 -
  Flybe Nordic 1 -
  Novair 1 -
Jet Charter Inc ( Franklin Lakes Nj ) 0 -
Gama Aviation 0 -
Nordwind Airlines 0 -
Civil Air Patrol 0 -
NetJets 0 0
  Berry Aviation 0 -
  Aeromar 0 4
Top Plane Types
Model Flights Seats
Cessna C172 4.0/day - 0
Beech 58 1.2/day - 0
Beech E90 King Air 1.0/day - 0
Beech B300 Super King Air 350 0.5/day - 0
Beech G36 Bonanza 0.2/day - 0
Cessna C208 0.1/day - 0